sensor_id;sensor_type;location;lat;lon;timestamp;P1;durP1;ratioP1;P2;durP2;ratioP2
37777;SDS011;23615;51.506;7.678;2022-09-11T00:00:48;7.32;;;6.63;;
37777;SDS011;23615;51.506;7.678;2022-09-11T00:03:15;7.82;;;7.00;;
37777;SDS011;23615;51.506;7.678;2022-09-11T00:05:42;9.25;;;7.47;;
37777;SDS011;23615;51.506;7.678;2022-09-11T00:08:08;8.07;;;7.05;;
37777;SDS011;23615;51.506;7.678;2022-09-11T00:10:36;8.07;;;7.10;;
37777;SDS011;23615;51.506;7.678;2022-09-11T00:13:04;12.00;;;10.63;;
37777;SDS011;23615;51.506;7.678;2022-09-11T00:15:36;14.80;;;11.50;;
37777;SDS011;23615;51.506;7.678;2022-09-11T00:18:05;11.93;;;10.45;;
37777;SDS011;23615;51.506;7.678;2022-09-11T00:20:31;10.48;;;9.48;;
37777;SDS011;23615;51.506;7.678;2022-09-11T00:22:58;10.20;;;7.82;;
37777;SDS011;23615;51.506;7.678;2022-09-11T00:25:26;8.25;;;6.90;;
37777;SDS011;23615;51.506;7.678;2022-09-11T00:27:51;6.85;;;6.13;;
37777;SDS011;23615;51.506;7.678;2022-09-11T00:30:16;7.00;;;5.65;;
37777;SDS011;23615;51.506;7.678;2022-09-11T00:32:42;5.63;;;5.07;;
37777;SDS011;23615;51.506;7.678;2022-09-11T00:35:07;11.02;;;7.13;;
37777;SDS011;23615;51.506;7.678;2022-09-11T00:37:33;10.45;;;7.15;;
37777;SDS011;23615;51.506;7.678;2022-09-11T00:39:58;6.63;;;5.80;;
37777;SDS011;23615;51.506;7.678;2022-09-11T00:42:24;8.60;;;7.70;;
37777;SDS011;23615;51.506;7.678;2022-09-11T00:47:15;9.05;;;7.70;;
37777;SDS011;23615;51.506;7.678;2022-09-11T00:49:46;8.70;;;7.35;;
37777;SDS011;23615;51.506;7.678;2022-09-11T00:52:22;12.10;;;7.82;;
37777;SDS011;23615;51.506;7.678;2022-09-11T00:54:53;7.15;;;5.93;;
37777;SDS011;23615;51.506;7.678;2022-09-11T00:57:26;9.10;;;5.65;;
37777;SDS011;23615;51.506;7.678;2022-09-11T00:59:54;5.28;;;4.28;;
37777;SDS011;23615;51.506;7.678;2022-09-11T01:02:23;5.10;;;4.57;;
37777;SDS011;23615;51.506;7.678;2022-09-11T01:04:54;6.80;;;5.75;;
37777;SDS011;23615;51.506;7.678;2022-09-11T01:07:20;7.55;;;5.65;;
37777;SDS011;23615;51.506;7.678;2022-09-11T01:09:48;5.55;;;4.70;;
37777;SDS011;23615;51.506;7.678;2022-09-11T01:12:23;4.78;;;3.90;;
37777;SDS011;23615;51.506;7.678;2022-09-11T01:15:01;11.60;;;8.68;;
37777;SDS011;23615;51.506;7.678;2022-09-11T01:17:46;9.02;;;7.70;;
37777;SDS011;23615;51.506;7.678;2022-09-11T01:20:35;9.18;;;6.80;;
37777;SDS011;23615;51.506;7.678;2022-09-11T01:23:22;6.43;;;5.70;;
37777;SDS011;23615;51.506;7.678;2022-09-11T01:26:10;8.35;;;5.55;;
37777;SDS011;23615;51.506;7.678;2022-09-11T01:28:48;5.22;;;4.55;;
37777;SDS011;23615;51.506;7.678;2022-09-11T01:31:16;5.05;;;4.40;;
37777;SDS011;23615;51.506;7.678;2022-09-11T01:36:45;3.72;;;3.05;;
37777;SDS011;23615;51.506;7.678;2022-09-11T01:39:17;3.65;;;3.35;;
37777;SDS011;23615;51.506;7.678;2022-09-11T01:41:48;5.15;;;4.53;;
37777;SDS011;23615;51.506;7.678;2022-09-11T01:44:30;6.28;;;4.68;;
37777;SDS011;23615;51.506;7.678;2022-09-11T01:47:00;5.30;;;4.30;;
37777;SDS011;23615;51.506;7.678;2022-09-11T01:49:33;14.93;;;8.85;;
37777;SDS011;23615;51.506;7.678;2022-09-11T01:52:04;19.38;;;15.93;;
37777;SDS011;23615;51.506;7.678;2022-09-11T01:54:33;17.15;;;13.20;;
37777;SDS011;23615;51.506;7.678;2022-09-11T01:57:07;20.55;;;14.90;;
37777;SDS011;23615;51.506;7.678;2022-09-11T01:59:40;22.20;;;15.15;;
37777;SDS011;23615;51.506;7.678;2022-09-11T02:02:11;23.05;;;16.60;;
37777;SDS011;23615;51.506;7.678;2022-09-11T02:04:45;22.63;;;15.95;;
37777;SDS011;23615;51.506;7.678;2022-09-11T02:07:20;22.25;;;16.42;;
37777;SDS011;23615;51.506;7.678;2022-09-11T02:09:52;23.45;;;16.42;;
37777;SDS011;23615;51.506;7.678;2022-09-11T02:12:23;22.52;;;16.23;;
37777;SDS011;23615;51.506;7.678;2022-09-11T02:14:53;22.45;;;15.95;;
37777;SDS011;23615;51.506;7.678;2022-09-11T02:17:34;19.83;;;14.75;;
37777;SDS011;23615;51.506;7.678;2022-09-11T02:20:24;16.85;;;12.90;;
37777;SDS011;23615;51.506;7.678;2022-09-11T02:22:49;16.15;;;12.00;;
37777;SDS011;23615;51.506;7.678;2022-09-11T02:25:15;18.48;;;14.48;;
37777;SDS011;23615;51.506;7.678;2022-09-11T02:27:40;22.80;;;15.90;;
37777;SDS011;23615;51.506;7.678;2022-09-11T02:30:06;22.38;;;16.48;;
37777;SDS011;23615;51.506;7.678;2022-09-11T02:32:34;20.13;;;14.57;;
37777;SDS011;23615;51.506;7.678;2022-09-11T02:35:02;23.17;;;17.45;;
37777;SDS011;23615;51.506;7.678;2022-09-11T02:37:32;24.48;;;17.13;;
37777;SDS011;23615;51.506;7.678;2022-09-11T02:50:58;22.70;;;16.83;;
37777;SDS011;23615;51.506;7.678;2022-09-11T02:53:50;15.98;;;13.27;;
37777;SDS011;23615;51.506;7.678;2022-09-11T02:59:22;25.80;;;17.73;;
37777;SDS011;23615;51.506;7.678;2022-09-11T03:01:52;22.08;;;16.70;;
37777;SDS011;23615;51.506;7.678;2022-09-11T03:04:20;20.20;;;13.80;;
37777;SDS011;23615;51.506;7.678;2022-09-11T03:06:46;30.52;;;20.17;;
37777;SDS011;23615;51.506;7.678;2022-09-11T03:09:14;30.65;;;21.20;;
37777;SDS011;23615;51.506;7.678;2022-09-11T03:11:40;30.52;;;20.08;;
37777;SDS011;23615;51.506;7.678;2022-09-11T03:14:06;20.70;;;14.93;;
37777;SDS011;23615;51.506;7.678;2022-09-11T03:16:31;24.08;;;17.00;;
37777;SDS011;23615;51.506;7.678;2022-09-11T03:18:56;18.90;;;13.15;;
37777;SDS011;23615;51.506;7.678;2022-09-11T03:21:22;28.02;;;19.45;;
37777;SDS011;23615;51.506;7.678;2022-09-11T03:23:47;29.90;;;21.13;;
37777;SDS011;23615;51.506;7.678;2022-09-11T03:26:12;35.38;;;22.77;;
37777;SDS011;23615;51.506;7.678;2022-09-11T03:28:38;28.88;;;18.75;;
37777;SDS011;23615;51.506;7.678;2022-09-11T03:31:04;26.10;;;17.48;;
37777;SDS011;23615;51.506;7.678;2022-09-11T03:33:30;27.38;;;19.27;;
37777;SDS011;23615;51.506;7.678;2022-09-11T03:35:55;24.05;;;16.38;;
37777;SDS011;23615;51.506;7.678;2022-09-11T03:38:21;36.60;;;21.40;;
37777;SDS011;23615;51.506;7.678;2022-09-11T03:40:46;36.85;;;21.92;;
37777;SDS011;23615;51.506;7.678;2022-09-11T03:43:11;30.27;;;19.80;;
37777;SDS011;23615;51.506;7.678;2022-09-11T03:45:37;28.30;;;18.23;;
37777;SDS011;23615;51.506;7.678;2022-09-11T03:48:03;40.13;;;24.73;;
37777;SDS011;23615;51.506;7.678;2022-09-11T03:50:28;39.17;;;23.83;;
37777;SDS011;23615;51.506;7.678;2022-09-11T03:52:53;31.45;;;20.42;;
37777;SDS011;23615;51.506;7.678;2022-09-11T03:55:19;34.38;;;20.45;;
37777;SDS011;23615;51.506;7.678;2022-09-11T03:57:44;31.08;;;19.48;;
37777;SDS011;23615;51.506;7.678;2022-09-11T04:00:10;28.48;;;18.25;;
37777;SDS011;23615;51.506;7.678;2022-09-11T04:02:35;40.97;;;25.00;;
37777;SDS011;23615;51.506;7.678;2022-09-11T04:05:01;37.40;;;24.15;;
37777;SDS011;23615;51.506;7.678;2022-09-11T04:07:27;30.15;;;19.75;;
37777;SDS011;23615;51.506;7.678;2022-09-11T04:09:54;28.27;;;19.27;;
37777;SDS011;23615;51.506;7.678;2022-09-11T04:12:21;29.52;;;17.85;;
37777;SDS011;23615;51.506;7.678;2022-09-11T04:14:46;30.25;;;19.65;;
37777;SDS011;23615;51.506;7.678;2022-09-11T04:17:14;37.50;;;22.83;;
37777;SDS011;23615;51.506;7.678;2022-09-11T04:19:39;35.90;;;22.23;;
37777;SDS011;23615;51.506;7.678;2022-09-11T04:22:05;35.15;;;22.75;;
37777;SDS011;23615;51.506;7.678;2022-09-11T04:24:31;38.70;;;25.42;;
37777;SDS011;23615;51.506;7.678;2022-09-11T04:26:56;44.17;;;27.35;;
37777;SDS011;23615;51.506;7.678;2022-09-11T04:29:24;35.72;;;23.25;;
37777;SDS011;23615;51.506;7.678;2022-09-11T04:31:50;41.85;;;26.70;;
37777;SDS011;23615;51.506;7.678;2022-09-11T04:34:15;41.13;;;26.20;;
37777;SDS011;23615;51.506;7.678;2022-09-11T04:36:41;40.58;;;24.10;;
37777;SDS011;23615;51.506;7.678;2022-09-11T04:39:07;42.72;;;26.52;;
37777;SDS011;23615;51.506;7.678;2022-09-11T04:41:33;46.28;;;28.23;;
37777;SDS011;23615;51.506;7.678;2022-09-11T04:43:58;34.55;;;21.45;;
37777;SDS011;23615;51.506;7.678;2022-09-11T04:46:24;35.92;;;23.70;;
37777;SDS011;23615;51.506;7.678;2022-09-11T04:48:51;41.13;;;24.42;;
37777;SDS011;23615;51.506;7.678;2022-09-11T04:51:24;40.88;;;24.85;;
37777;SDS011;23615;51.506;7.678;2022-09-11T04:53:51;44.67;;;27.42;;
37777;SDS011;23615;51.506;7.678;2022-09-11T04:56:21;43.10;;;24.90;;
37777;SDS011;23615;51.506;7.678;2022-09-11T04:58:52;42.00;;;24.50;;
37777;SDS011;23615;51.506;7.678;2022-09-11T05:01:19;40.75;;;25.27;;
37777;SDS011;23615;51.506;7.678;2022-09-11T05:03:44;49.72;;;27.70;;
37777;SDS011;23615;51.506;7.678;2022-09-11T05:06:10;44.88;;;25.08;;
37777;SDS011;23615;51.506;7.678;2022-09-11T05:08:40;46.72;;;27.80;;
37777;SDS011;23615;51.506;7.678;2022-09-11T05:11:09;38.70;;;24.48;;
37777;SDS011;23615;51.506;7.678;2022-09-11T05:13:40;39.95;;;23.20;;
37777;SDS011;23615;51.506;7.678;2022-09-11T05:16:07;47.85;;;27.85;;
37777;SDS011;23615;51.506;7.678;2022-09-11T05:18:36;47.60;;;27.20;;
37777;SDS011;23615;51.506;7.678;2022-09-11T05:21:06;42.08;;;24.40;;
37777;SDS011;23615;51.506;7.678;2022-09-11T05:23:36;48.83;;;27.95;;
37777;SDS011;23615;51.506;7.678;2022-09-11T05:26:02;54.13;;;30.23;;
37777;SDS011;23615;51.506;7.678;2022-09-11T05:28:29;41.97;;;24.23;;
37777;SDS011;23615;51.506;7.678;2022-09-11T05:30:56;45.08;;;27.40;;
37777;SDS011;23615;51.506;7.678;2022-09-11T05:33:23;41.10;;;24.55;;
37777;SDS011;23615;51.506;7.678;2022-09-11T05:35:50;39.05;;;24.85;;
37777;SDS011;23615;51.506;7.678;2022-09-11T05:38:16;50.10;;;30.02;;
37777;SDS011;23615;51.506;7.678;2022-09-11T05:40:45;43.38;;;26.80;;
37777;SDS011;23615;51.506;7.678;2022-09-11T05:43:13;47.33;;;27.55;;
37777;SDS011;23615;51.506;7.678;2022-09-11T05:45:39;46.90;;;26.15;;
37777;SDS011;23615;51.506;7.678;2022-09-11T05:48:09;45.40;;;26.60;;
37777;SDS011;23615;51.506;7.678;2022-09-11T05:50:35;48.15;;;26.80;;
37777;SDS011;23615;51.506;7.678;2022-09-11T05:53:01;43.30;;;24.38;;
37777;SDS011;23615;51.506;7.678;2022-09-11T05:55:26;47.45;;;27.52;;
37777;SDS011;23615;51.506;7.678;2022-09-11T05:57:52;37.15;;;23.88;;
37777;SDS011;23615;51.506;7.678;2022-09-11T06:00:17;34.83;;;21.20;;
37777;SDS011;23615;51.506;7.678;2022-09-11T06:02:43;44.97;;;25.55;;
37777;SDS011;23615;51.506;7.678;2022-09-11T06:05:09;45.25;;;25.75;;
37777;SDS011;23615;51.506;7.678;2022-09-11T06:07:34;44.58;;;26.17;;
37777;SDS011;23615;51.506;7.678;2022-09-11T06:10:00;47.40;;;25.73;;
37777;SDS011;23615;51.506;7.678;2022-09-11T06:12:25;53.90;;;28.70;;
37777;SDS011;23615;51.506;7.678;2022-09-11T06:14:52;42.40;;;25.60;;
37777;SDS011;23615;51.506;7.678;2022-09-11T06:17:18;46.25;;;26.27;;
37777;SDS011;23615;51.506;7.678;2022-09-11T06:19:44;44.75;;;26.20;;
37777;SDS011;23615;51.506;7.678;2022-09-11T06:22:09;45.15;;;25.50;;
37777;SDS011;23615;51.506;7.678;2022-09-11T06:24:35;51.72;;;27.17;;
37777;SDS011;23615;51.506;7.678;2022-09-11T06:27:00;42.90;;;25.52;;
37777;SDS011;23615;51.506;7.678;2022-09-11T06:29:26;40.28;;;21.52;;
37777;SDS011;23615;51.506;7.678;2022-09-11T06:31:51;47.20;;;24.83;;
37777;SDS011;23615;51.506;7.678;2022-09-11T06:34:16;65.63;;;29.27;;
37777;SDS011;23615;51.506;7.678;2022-09-11T06:36:44;55.63;;;30.00;;
37777;SDS011;23615;51.506;7.678;2022-09-11T06:39:09;46.63;;;26.42;;
37777;SDS011;23615;51.506;7.678;2022-09-11T06:41:34;45.95;;;27.35;;
37777;SDS011;23615;51.506;7.678;2022-09-11T06:44:00;49.65;;;26.35;;
37777;SDS011;23615;51.506;7.678;2022-09-11T06:46:25;49.92;;;26.83;;
37777;SDS011;23615;51.506;7.678;2022-09-11T06:48:51;50.10;;;27.95;;
37777;SDS011;23615;51.506;7.678;2022-09-11T06:51:18;49.30;;;26.77;;
37777;SDS011;23615;51.506;7.678;2022-09-11T06:53:44;46.65;;;27.15;;
37777;SDS011;23615;51.506;7.678;2022-09-11T06:56:15;51.03;;;28.40;;
37777;SDS011;23615;51.506;7.678;2022-09-11T06:58:41;49.15;;;26.67;;
37777;SDS011;23615;51.506;7.678;2022-09-11T07:01:11;53.08;;;26.27;;
37777;SDS011;23615;51.506;7.678;2022-09-11T07:03:40;56.75;;;30.52;;
37777;SDS011;23615;51.506;7.678;2022-09-11T07:06:08;48.00;;;26.38;;
37777;SDS011;23615;51.506;7.678;2022-09-11T07:08:34;51.70;;;27.13;;
37777;SDS011;23615;51.506;7.678;2022-09-11T07:11:02;56.50;;;29.45;;
37777;SDS011;23615;51.506;7.678;2022-09-11T07:13:31;50.47;;;26.80;;
37777;SDS011;23615;51.506;7.678;2022-09-11T07:16:04;61.30;;;29.95;;
37777;SDS011;23615;51.506;7.678;2022-09-11T07:18:38;52.65;;;28.02;;
37777;SDS011;23615;51.506;7.678;2022-09-11T07:21:12;62.25;;;31.55;;
37777;SDS011;23615;51.506;7.678;2022-09-11T07:23:44;73.85;;;33.33;;
37777;SDS011;23615;51.506;7.678;2022-09-11T07:26:12;82.68;;;36.40;;
37777;SDS011;23615;51.506;7.678;2022-09-11T07:28:38;77.93;;;35.75;;
37777;SDS011;23615;51.506;7.678;2022-09-11T07:31:05;94.32;;;38.88;;
37777;SDS011;23615;51.506;7.678;2022-09-11T07:33:34;74.55;;;32.35;;
37777;SDS011;23615;51.506;7.678;2022-09-11T07:36:04;76.00;;;32.55;;
37777;SDS011;23615;51.506;7.678;2022-09-11T07:38:30;93.97;;;38.25;;
37777;SDS011;23615;51.506;7.678;2022-09-11T07:40:55;102.07;;;39.97;;
37777;SDS011;23615;51.506;7.678;2022-09-11T07:43:21;111.82;;;41.20;;
37777;SDS011;23615;51.506;7.678;2022-09-11T07:45:46;107.22;;;40.88;;
37777;SDS011;23615;51.506;7.678;2022-09-11T07:48:12;106.40;;;40.13;;
37777;SDS011;23615;51.506;7.678;2022-09-11T07:50:37;95.97;;;38.20;;
37777;SDS011;23615;51.506;7.678;2022-09-11T07:53:02;99.30;;;36.72;;
37777;SDS011;23615;51.506;7.678;2022-09-11T07:55:28;94.82;;;35.97;;
37777;SDS011;23615;51.506;7.678;2022-09-11T07:57:53;76.53;;;30.77;;
37777;SDS011;23615;51.506;7.678;2022-09-11T08:00:19;79.50;;;32.80;;
37777;SDS011;23615;51.506;7.678;2022-09-11T08:02:45;91.45;;;33.70;;
37777;SDS011;23615;51.506;7.678;2022-09-11T08:05:11;125.40;;;38.22;;
37777;SDS011;23615;51.506;7.678;2022-09-11T08:07:36;97.38;;;35.28;;
37777;SDS011;23615;51.506;7.678;2022-09-11T08:10:02;90.53;;;33.38;;
37777;SDS011;23615;51.506;7.678;2022-09-11T08:12:27;79.18;;;34.30;;
37777;SDS011;23615;51.506;7.678;2022-09-11T08:14:53;99.07;;;36.15;;
37777;SDS011;23615;51.506;7.678;2022-09-11T08:17:18;78.38;;;31.95;;
37777;SDS011;23615;51.506;7.678;2022-09-11T08:19:43;74.35;;;29.73;;
37777;SDS011;23615;51.506;7.678;2022-09-11T08:22:09;66.05;;;28.30;;
37777;SDS011;23615;51.506;7.678;2022-09-11T08:24:34;59.88;;;27.48;;
37777;SDS011;23615;51.506;7.678;2022-09-11T08:27:00;79.13;;;31.77;;
37777;SDS011;23615;51.506;7.678;2022-09-11T08:29:25;50.67;;;24.42;;
37777;SDS011;23615;51.506;7.678;2022-09-11T08:31:50;75.00;;;28.13;;
37777;SDS011;23615;51.506;7.678;2022-09-11T08:34:16;55.55;;;25.02;;
37777;SDS011;23615;51.506;7.678;2022-09-11T08:36:41;58.65;;;23.55;;
37777;SDS011;23615;51.506;7.678;2022-09-11T08:39:07;106.78;;;31.33;;
37777;SDS011;23615;51.506;7.678;2022-09-11T08:41:47;108.20;;;32.13;;
37777;SDS011;23615;51.506;7.678;2022-09-11T08:44:21;51.78;;;22.30;;
37777;SDS011;23615;51.506;7.678;2022-09-11T08:47:00;70.03;;;26.25;;
37777;SDS011;23615;51.506;7.678;2022-09-11T08:49:41;78.75;;;25.42;;
37777;SDS011;23615;51.506;7.678;2022-09-11T08:52:12;48.08;;;23.30;;
37777;SDS011;23615;51.506;7.678;2022-09-11T08:54:39;52.53;;;23.63;;
37777;SDS011;23615;51.506;7.678;2022-09-11T09:00:20;52.08;;;21.95;;
37777;SDS011;23615;51.506;7.678;2022-09-11T09:03:00;61.03;;;27.55;;
37777;SDS011;23615;51.506;7.678;2022-09-11T09:13:56;45.85;;;20.95;;
37777;SDS011;23615;51.506;7.678;2022-09-11T09:16:43;51.00;;;23.00;;
37777;SDS011;23615;51.506;7.678;2022-09-11T09:19:32;49.60;;;22.95;;
37777;SDS011;23615;51.506;7.678;2022-09-11T09:22:04;47.40;;;22.25;;
37777;SDS011;23615;51.506;7.678;2022-09-11T09:24:35;59.58;;;23.67;;
37777;SDS011;23615;51.506;7.678;2022-09-11T09:27:07;56.45;;;23.42;;
37777;SDS011;23615;51.506;7.678;2022-09-11T09:29:41;54.88;;;21.60;;
37777;SDS011;23615;51.506;7.678;2022-09-11T09:32:12;44.80;;;23.45;;
37777;SDS011;23615;51.506;7.678;2022-09-11T09:34:44;50.53;;;22.45;;
37777;SDS011;23615;51.506;7.678;2022-09-11T09:37:17;51.75;;;23.90;;
37777;SDS011;23615;51.506;7.678;2022-09-11T09:39:45;70.75;;;29.00;;
37777;SDS011;23615;51.506;7.678;2022-09-11T09:42:36;61.20;;;25.25;;
37777;SDS011;23615;51.506;7.678;2022-09-11T09:47:58;60.80;;;25.48;;
37777;SDS011;23615;51.506;7.678;2022-09-11T09:50:30;59.72;;;26.33;;
37777;SDS011;23615;51.506;7.678;2022-09-11T09:53:01;48.35;;;22.75;;
37777;SDS011;23615;51.506;7.678;2022-09-11T09:55:34;47.45;;;22.65;;
37777;SDS011;23615;51.506;7.678;2022-09-11T09:58:02;65.90;;;29.60;;
37777;SDS011;23615;51.506;7.678;2022-09-11T10:00:28;60.05;;;27.80;;
37777;SDS011;23615;51.506;7.678;2022-09-11T10:02:56;57.60;;;25.48;;
37777;SDS011;23615;51.506;7.678;2022-09-11T10:05:41;55.75;;;26.40;;
37777;SDS011;23615;51.506;7.678;2022-09-11T10:11:00;50.33;;;23.05;;
37777;SDS011;23615;51.506;7.678;2022-09-11T10:13:28;54.63;;;25.27;;
37777;SDS011;23615;51.506;7.678;2022-09-11T10:15:57;38.20;;;20.75;;
37777;SDS011;23615;51.506;7.678;2022-09-11T10:20:54;41.90;;;21.73;;
37777;SDS011;23615;51.506;7.678;2022-09-11T10:26:11;40.78;;;22.48;;
37777;SDS011;23615;51.506;7.678;2022-09-11T10:28:40;44.67;;;22.38;;
37777;SDS011;23615;51.506;7.678;2022-09-11T10:31:06;39.50;;;22.13;;
37777;SDS011;23615;51.506;7.678;2022-09-11T10:33:33;43.63;;;21.73;;
37777;SDS011;23615;51.506;7.678;2022-09-11T10:36:02;39.22;;;21.98;;
37777;SDS011;23615;51.506;7.678;2022-09-11T10:38:32;41.60;;;22.25;;
37777;SDS011;23615;51.506;7.678;2022-09-11T10:43:37;37.15;;;20.65;;
37777;SDS011;23615;51.506;7.678;2022-09-11T10:51:33;33.47;;;20.40;;
37777;SDS011;23615;51.506;7.678;2022-09-11T10:59:55;40.10;;;22.42;;
37777;SDS011;23615;51.506;7.678;2022-09-11T11:02:48;32.88;;;20.00;;
37777;SDS011;23615;51.506;7.678;2022-09-11T11:05:21;31.90;;;18.92;;
37777;SDS011;23615;51.506;7.678;2022-09-11T11:10:36;35.50;;;22.83;;
37777;SDS011;23615;51.506;7.678;2022-09-11T11:16:05;37.80;;;23.27;;
37777;SDS011;23615;51.506;7.678;2022-09-11T11:21:29;38.03;;;23.63;;
37777;SDS011;23615;51.506;7.678;2022-09-11T11:26:51;30.85;;;21.90;;
37777;SDS011;23615;51.506;7.678;2022-09-11T11:30:22;32.55;;;21.02;;
37777;SDS011;23615;51.506;7.678;2022-09-11T11:32:43;32.83;;;19.67;;
37777;SDS011;23615;51.506;7.678;2022-09-11T11:38:30;31.50;;;18.98;;
37777;SDS011;23615;51.506;7.678;2022-09-11T11:41:05;31.75;;;19.13;;
37777;SDS011;23615;51.506;7.678;2022-09-11T11:43:38;31.45;;;19.67;;
37777;SDS011;23615;51.506;7.678;2022-09-11T11:48:42;33.97;;;18.90;;
37777;SDS011;23615;51.506;7.678;2022-09-11T11:51:14;36.60;;;20.40;;
37777;SDS011;23615;51.506;7.678;2022-09-11T11:56:49;36.88;;;21.50;;
37777;SDS011;23615;51.506;7.678;2022-09-11T12:02:11;28.75;;;19.48;;
37777;SDS011;23615;51.506;7.678;2022-09-11T12:04:53;35.17;;;19.48;;
37777;SDS011;23615;51.506;7.678;2022-09-11T12:07:24;30.90;;;17.58;;
37777;SDS011;23615;51.506;7.678;2022-09-11T12:09:53;29.17;;;17.38;;
37777;SDS011;23615;51.506;7.678;2022-09-11T12:12:21;30.90;;;17.77;;
37777;SDS011;23615;51.506;7.678;2022-09-11T12:14:55;29.92;;;17.48;;
37777;SDS011;23615;51.506;7.678;2022-09-11T12:17:28;24.27;;;14.90;;
37777;SDS011;23615;51.506;7.678;2022-09-11T12:22:44;29.42;;;17.90;;
37777;SDS011;23615;51.506;7.678;2022-09-11T12:40:48;35.78;;;22.48;;
37777;SDS011;23615;51.506;7.678;2022-09-11T12:43:27;30.35;;;19.23;;
37777;SDS011;23615;51.506;7.678;2022-09-11T12:51:36;31.30;;;19.30;;
37777;SDS011;23615;51.506;7.678;2022-09-11T12:57:35;28.48;;;19.45;;
37777;SDS011;23615;51.506;7.678;2022-09-11T13:00:06;23.95;;;14.80;;
37777;SDS011;23615;51.506;7.678;2022-09-11T13:02:44;21.05;;;13.55;;
37777;SDS011;23615;51.506;7.678;2022-09-11T13:05:29;24.27;;;15.25;;
37777;SDS011;23615;51.506;7.678;2022-09-11T13:08:03;21.08;;;14.18;;
37777;SDS011;23615;51.506;7.678;2022-09-11T13:10:35;19.15;;;13.07;;
37777;SDS011;23615;51.506;7.678;2022-09-11T13:13:04;18.60;;;13.45;;
37777;SDS011;23615;51.506;7.678;2022-09-11T13:15:49;20.15;;;14.05;;
37777;SDS011;23615;51.506;7.678;2022-09-11T13:18:21;18.05;;;12.07;;
37777;SDS011;23615;51.506;7.678;2022-09-11T13:23:32;20.83;;;14.48;;
37777;SDS011;23615;51.506;7.678;2022-09-11T13:25:58;19.55;;;13.18;;
37777;SDS011;23615;51.506;7.678;2022-09-11T13:28:25;19.98;;;13.35;;
37777;SDS011;23615;51.506;7.678;2022-09-11T13:30:55;20.65;;;13.82;;
37777;SDS011;23615;51.506;7.678;2022-09-11T13:33:24;18.00;;;12.43;;
37777;SDS011;23615;51.506;7.678;2022-09-11T13:35:52;17.98;;;12.10;;
37777;SDS011;23615;51.506;7.678;2022-09-11T13:38:25;17.35;;;10.15;;
37777;SDS011;23615;51.506;7.678;2022-09-11T13:40:55;14.18;;;10.13;;
37777;SDS011;23615;51.506;7.678;2022-09-11T13:43:25;18.52;;;12.70;;
37777;SDS011;23615;51.506;7.678;2022-09-11T13:46:14;10.95;;;9.27;;
37777;SDS011;23615;51.506;7.678;2022-09-11T13:48:46;16.67;;;11.73;;
37777;SDS011;23615;51.506;7.678;2022-09-11T13:51:14;12.57;;;8.30;;
37777;SDS011;23615;51.506;7.678;2022-09-11T13:53:43;14.93;;;10.52;;
37777;SDS011;23615;51.506;7.678;2022-09-11T14:01:51;15.55;;;11.50;;
37777;SDS011;23615;51.506;7.678;2022-09-11T14:04:24;14.38;;;9.60;;
37777;SDS011;23615;51.506;7.678;2022-09-11T14:06:51;13.75;;;10.05;;
37777;SDS011;23615;51.506;7.678;2022-09-11T14:09:17;10.77;;;8.55;;
37777;SDS011;23615;51.506;7.678;2022-09-11T14:11:45;13.18;;;8.82;;
37777;SDS011;23615;51.506;7.678;2022-09-11T14:14:18;11.55;;;7.72;;
37777;SDS011;23615;51.506;7.678;2022-09-11T14:16:50;10.07;;;7.15;;
37777;SDS011;23615;51.506;7.678;2022-09-11T14:19:20;11.13;;;6.97;;
37777;SDS011;23615;51.506;7.678;2022-09-11T14:21:48;14.85;;;9.57;;
37777;SDS011;23615;51.506;7.678;2022-09-11T14:24:27;17.30;;;10.40;;
37777;SDS011;23615;51.506;7.678;2022-09-11T14:27:03;15.40;;;10.65;;
37777;SDS011;23615;51.506;7.678;2022-09-11T14:29:52;13.93;;;8.85;;
37777;SDS011;23615;51.506;7.678;2022-09-11T14:32:29;16.50;;;8.65;;
37777;SDS011;23615;51.506;7.678;2022-09-11T14:34:56;11.80;;;7.88;;
37777;SDS011;23615;51.506;7.678;2022-09-11T14:37:22;9.20;;;6.38;;
37777;SDS011;23615;51.506;7.678;2022-09-11T14:39:52;13.88;;;9.38;;
37777;SDS011;23615;51.506;7.678;2022-09-11T14:42:22;11.85;;;7.00;;
37777;SDS011;23615;51.506;7.678;2022-09-11T14:44:49;8.90;;;7.20;;
37777;SDS011;23615;51.506;7.678;2022-09-11T14:47:16;12.00;;;6.97;;
37777;SDS011;23615;51.506;7.678;2022-09-11T14:49:44;14.13;;;9.65;;
37777;SDS011;23615;51.506;7.678;2022-09-11T14:52:11;13.48;;;7.80;;
37777;SDS011;23615;51.506;7.678;2022-09-11T14:54:38;11.35;;;7.70;;
37777;SDS011;23615;51.506;7.678;2022-09-11T14:57:13;10.07;;;6.22;;
37777;SDS011;23615;51.506;7.678;2022-09-11T14:59:38;12.52;;;8.00;;
37777;SDS011;23615;51.506;7.678;2022-09-11T15:02:08;12.07;;;7.78;;
37777;SDS011;23615;51.506;7.678;2022-09-11T15:04:35;11.25;;;7.13;;
37777;SDS011;23615;51.506;7.678;2022-09-11T15:07:00;11.00;;;7.57;;
37777;SDS011;23615;51.506;7.678;2022-09-11T15:09:26;11.77;;;7.22;;
37777;SDS011;23615;51.506;7.678;2022-09-11T15:11:51;15.50;;;9.77;;
37777;SDS011;23615;51.506;7.678;2022-09-11T15:14:17;11.63;;;7.60;;
37777;SDS011;23615;51.506;7.678;2022-09-11T15:16:43;12.70;;;8.20;;
37777;SDS011;23615;51.506;7.678;2022-09-11T15:19:08;12.60;;;7.63;;
37777;SDS011;23615;51.506;7.678;2022-09-11T15:21:34;9.57;;;6.00;;
37777;SDS011;23615;51.506;7.678;2022-09-11T15:24:00;10.35;;;6.85;;
37777;SDS011;23615;51.506;7.678;2022-09-11T15:26:25;7.30;;;5.40;;
37777;SDS011;23615;51.506;7.678;2022-09-11T15:28:51;7.63;;;4.22;;
37777;SDS011;23615;51.506;7.678;2022-09-11T15:31:17;7.05;;;4.72;;
37777;SDS011;23615;51.506;7.678;2022-09-11T15:33:43;5.55;;;3.75;;
37777;SDS011;23615;51.506;7.678;2022-09-11T15:36:13;7.95;;;4.43;;
37777;SDS011;23615;51.506;7.678;2022-09-11T15:38:39;7.03;;;4.03;;
37777;SDS011;23615;51.506;7.678;2022-09-11T15:41:05;9.73;;;7.38;;
37777;SDS011;23615;51.506;7.678;2022-09-11T15:43:34;7.50;;;5.28;;
37777;SDS011;23615;51.506;7.678;2022-09-11T15:46:16;12.60;;;6.85;;
37777;SDS011;23615;51.506;7.678;2022-09-11T15:48:46;8.75;;;6.57;;
37777;SDS011;23615;51.506;7.678;2022-09-11T15:51:14;10.45;;;6.32;;
37777;SDS011;23615;51.506;7.678;2022-09-11T15:53:41;8.70;;;5.70;;
37777;SDS011;23615;51.506;7.678;2022-09-11T15:56:09;6.30;;;4.97;;
37777;SDS011;23615;51.506;7.678;2022-09-11T15:58:37;6.63;;;4.60;;
37777;SDS011;23615;51.506;7.678;2022-09-11T16:01:06;6.10;;;5.00;;
37777;SDS011;23615;51.506;7.678;2022-09-11T16:03:41;10.38;;;8.05;;
37777;SDS011;23615;51.506;7.678;2022-09-11T16:06:06;8.93;;;6.87;;
37777;SDS011;23615;51.506;7.678;2022-09-11T16:08:32;8.33;;;5.87;;
37777;SDS011;23615;51.506;7.678;2022-09-11T16:10:57;9.97;;;7.20;;
37777;SDS011;23615;51.506;7.678;2022-09-11T16:13:28;7.25;;;5.80;;
37777;SDS011;23615;51.506;7.678;2022-09-11T16:16:01;8.82;;;6.32;;
37777;SDS011;23615;51.506;7.678;2022-09-11T16:18:28;5.90;;;5.03;;
37777;SDS011;23615;51.506;7.678;2022-09-11T16:20:57;6.95;;;5.20;;
37777;SDS011;23615;51.506;7.678;2022-09-11T16:23:23;4.27;;;3.87;;
37777;SDS011;23615;51.506;7.678;2022-09-11T16:25:50;4.97;;;3.67;;
37777;SDS011;23615;51.506;7.678;2022-09-11T16:28:15;5.63;;;4.45;;
37777;SDS011;23615;51.506;7.678;2022-09-11T16:30:41;6.32;;;4.95;;
37777;SDS011;23615;51.506;7.678;2022-09-11T16:33:07;5.72;;;4.53;;